Fort Thomson, Canada
Current Conditions -  °F | °C
As of 6:00 PM on Saturday 25 Oct 2014 (Local Time) from CYCO Reporting Station
Light Snow Light Snow  
Wind Chill:   Ceiling: 2400
Heat Index: 18°   Visibility: 4mi
Dew Point: 14°   Wind: 15mph
Humidity: 86%   Direction: 260°W
Pressure: 29.9"   Gusts: NA
Location:  68.78°N, 114.78°W
Report Text: CYCO 260100Z 26013KT 4SM -SN DRSN OVC024 M08/M10 A2990 RMK SC8SLP127
Loading
Personal Weather Stations






























Interactive Weather Map
Tropical Storm Tracking
New forecast layout! Learn more

10-Day Weather Forecast

Advertisements
Track Severe Weather on mobile